This is the latest recevied weather packets stored in our database for station/object DL2ARH-7. If no packets are shown the sender has not sent any weather packets the latest 1 day(s).
| Time | Temp. | Humidity | Pressure | Rain* | Wind** | Luminosity | Snow |
|---|---|---|---|---|---|---|---|
| 1778056910 | 20.56° C | 42% | 1005 hPa | 0 mm | - | - | - |
| 1778056777 | 20° C | 43% | 1005 hPa | 0 mm | - | - | - |
| 1778056644 | 20° C | 43% | 1005.1 hPa | 0 mm | - | - | - |
| 1778056510 | 20.56° C | 44% | 1005 hPa | 0 mm | - | - | - |
| 1778056444 | 21.11° C | 44% | 1005.1 hPa | 0 mm | - | - | - |
| 1778056378 | 20.56° C | 45% | 1005 hPa | 0 mm | - | - | - |
| 1778056311 | 20.56° C | 46% | 1005.1 hPa | 0 mm | - | - | - |
| 1778056111 | 19.44° C | 47% | 1004.9 hPa | 0 mm | - | - | - |
| 1778055712 | 19.44° C | 49% | 1004.9 hPa | 0 mm | - | - | - |
| 1778055646 | 19.44° C | 50% | 1004.9 hPa | 0 mm | - | - | - |
| 1778055580 | 18.89° C | 50% | 1005 hPa | 0 mm | - | - | - |
| 1778055514 | 18.89° C | 49% | 1005 hPa | 0 mm | - | - | - |
| 1778055247 | 19.44° C | 44% | 1005.1 hPa | 0 mm | - | - | - |
| 1778054849 | 20° C | 40% | 1004.9 hPa | 0 mm | - | - | - |
| 1778054784 | 20.56° C | 40% | 1004.8 hPa | 0 mm | - | - | - |
| 1778054450 | 20.56° C | 42% | 1004.8 hPa | 0 mm | - | - | - |
| 1778054316 | 20.56° C | 45% | 1004.9 hPa | 0 mm | - | - | - |
| 1778054183 | 20° C | 50% | 1004.8 hPa | 0 mm | - | - | - |
| 1778054052 | 19.44° C | 51% | 1004.7 hPa | 0 mm | - | - | - |
| 1778053851 | 18.33° C | 51% | 1004.8 hPa | 0 mm | - | - | - |
| 1778053651 | 18.89° C | 50% | 1004.7 hPa | 0 mm | - | - | - |
| 1778053385 | 18.89° C | 48% | 1004.7 hPa | 0 mm | - | - | - |
| 1778053119 | 20.56° C | 42% | 1004.8 hPa | 0 mm | - | - | - |
| 1778052986 | 21.67° C | 43% | 1004.7 hPa | 0 mm | - | - | - |
| 1778052854 | 21.11° C | 43% | 1004.7 hPa | 0 mm | - | - | - |
* Rain latest hour (hover to see other rain measurements)
** Current wind speed in m/s (hover to see current wind gust speed)